Time;durP1;ratioP1;P1;durP2;ratioP2;P2;SDS_P1;SDS_P2;PMS_P1;PMS_P2;Temp;Humidity;BMP_temperature;BMP_pressure;BME280_temperature;BME280_humidity;BME280_pressure;Samples;Min_cycle;Max_cycle;Signal;HPM_P1;HPM_P2
2022/06/14 00:00:53;;;;;;;;;;;;;;;14.03;64.18;97466.91;30001;983;1855;-70
2022/06/14 00:01:24;;;;;;;;;;;;;;;14.03;64.13;97467.72;30001;983;1877;-70
2022/06/14 00:01:55;;;;;;;;;;;;;;;14.01;64.23;97467.22;30001;983;1877;-70
2022/06/14 00:02:26;;;;;;;;;;;;;;;14.00;64.09;97468.31;30001;983;1877;-70
2022/06/14 00:02:57;;;;;;;;;;;;;;;14.00;64.47;97471.06;30001;982;1877;-71
2022/06/14 00:03:29;;;;;;;;;;;;;;;13.97;64.05;97466.19;30001;982;1877;-70
2022/06/14 00:04:00;;;;;;;;;;;;;;;13.99;64.37;97468.63;30001;982;1877;-71
2022/06/14 00:04:32;;;;;;;;;;;;;;;13.99;63.92;97468.63;30001;982;1877;-70
2022/06/14 00:05:04;;;;;;;;;;;;;;;13.99;64.08;97466.72;30001;982;1864;-71
2022/06/14 00:05:35;;;;;;;;;;;;;;;14.02;63.63;97468.03;30001;982;1869;-72
2022/06/14 00:06:07;;;;;;;;;;;;;;;14.03;63.62;97466.91;30001;983;1876;-70
2022/06/14 00:06:38;;;;;;;;;;;;;;;14.03;63.42;97458.72;30001;983;1876;-55
2022/06/14 00:07:09;;;;;;;;;;;;;;;14.01;63.76;97464.47;30001;983;1876;-71
2022/06/14 00:07:40;;;;;;;;;;;;;;;14.02;63.66;97463.37;30001;983;1876;-70
2022/06/14 00:08:12;;;;;;;;;;;;;;;14.03;63.50;97464.19;30001;983;1876;-71
2022/06/14 00:08:42;;;;;;;;;;;;;;;14.02;63.57;97466.09;30001;983;1877;-70
2022/06/14 00:09:13;;;;;;;;;;;;;;;14.03;63.92;97459.53;30001;983;1877;-69
2022/06/14 00:09:44;;;;;;;;;;;;;;;14.04;63.37;97461.16;30001;983;1877;-71
2022/06/14 00:10:16;;;;;;;;;;;;;;;14.04;63.41;97469.34;30001;982;1864;-71
2022/06/14 00:10:47;;;;;;;;;;;;;;;14.03;63.60;97465.00;30001;982;1868;-73
2022/06/14 00:11:20;;;;;;;;;;;;;;;14.03;63.78;97467.72;30001;982;1877;-70
2022/06/14 00:11:51;;;;;;;;;;;;;;;14.02;63.95;97463.37;30001;982;1864;-71
2022/06/14 00:12:22;;;;;;;;;;;;;;;14.01;64.03;97460.94;30001;982;1869;-70
2022/06/14 00:12:53;;;;;;;;;;;;;;;14.01;63.56;97460.94;30001;983;1876;-71
2022/06/14 00:13:25;;;;;;;;;;;;;;;13.99;64.08;97457.72;30001;983;1876;-70
2022/06/14 00:13:59;;;;;;;;;;;;;;;13.98;63.94;97467.00;30001;983;1876;-71
2022/06/14 00:14:31;;;;;;;;;;;;;;;13.95;64.28;97460.22;30001;983;1876;-69
2022/06/14 00:15:02;;;;;;;;;;;;;;;13.94;64.29;97460.53;30001;983;1877;-70
2022/06/14 00:15:34;;;;;;;;;;;;;;;13.92;64.39;97469.00;30001;983;1876;-70
2022/06/14 00:16:05;;;;;;;;;;;;;;;13.90;64.79;97465.78;30001;983;1864;-71
2022/06/14 00:16:37;;;;;;;;;;;;;;;13.88;64.94;97462.53;30001;983;1868;-70
2022/06/14 00:17:08;;;;;;;;;;;;;;;13.86;64.67;97469.44;30001;983;1877;-71
2022/06/14 00:17:39;;;;;;;;;;;;;;;13.86;64.71;97472.94;30001;982;1877;-71
2022/06/14 00:18:10;;;;;;;;;;;;;;;13.85;64.73;97468.63;30001;982;1877;-71
2022/06/14 00:18:41;;;;;;;;;;;;;;;13.83;65.14;97465.38;30001;982;1877;-70
2022/06/14 00:19:12;;;;;;;;;;;;;;;13.82;64.68;97463.75;30001;982;1877;-70
2022/06/14 00:19:43;;;;;;;;;;;;;;;13.81;65.16;97462.13;30001;982;1877;-71
2022/06/14 00:20:14;;;;;;;;;;;;;;;13.80;65.18;97465.97;30001;983;1876;-70
2022/06/14 00:20:46;;;;;;;;;;;;;;;13.78;65.41;97460.00;30001;983;1876;-70
2022/06/14 00:21:17;;;;;;;;;;;;;;;13.78;64.93;97468.19;30001;983;1863;-70
2022/06/14 00:21:48;;;;;;;;;;;;;;;13.78;65.26;97462.72;30001;983;1868;-71
2022/06/14 00:22:18;;;;;;;;;;;;;;;13.78;65.10;97462.72;30001;983;1877;-70
2022/06/14 00:22:49;;;;;;;;;;;;;;;13.78;65.34;97461.91;30001;983;1877;-71
2022/06/14 00:23:22;;;;;;;;;;;;;;;13.78;65.42;97460.00;30001;983;1877;-71
2022/06/14 00:23:53;;;;;;;;;;;;;;;13.78;65.41;97461.91;30001;983;1877;-70
2022/06/14 00:24:26;;;;;;;;;;;;;;;13.77;65.23;97463.84;30001;983;1877;-70
2022/06/14 00:24:57;;;;;;;;;;;;;;;13.78;65.35;97456.47;30001;983;1877;-70
2022/06/14 00:25:33;;;;;;;;;;;;;;;13.77;65.14;97461.13;30001;982;1877;-72
2022/06/14 00:26:04;;;;;;;;;;;;;;;13.77;65.40;97454.84;30001;982;1877;-71
2022/06/14 00:26:35;;;;;;;;;;;;;;;13.77;65.26;97458.38;30001;982;1864;-70
2022/06/14 00:27:06;;;;;;;;;;;;;;;13.78;65.30;97456.47;30001;982;1855;-71
2022/06/14 00:27:36;;;;;;;;;;;;;;;13.78;65.03;97451.81;30001;982;1877;-55
2022/06/14 00:28:09;;;;;;;;;;;;;;;13.78;65.24;97460.00;30001;983;1863;-55
2022/06/14 00:28:42;;;;;;;;;;;;;;;13.76;65.14;97454.03;30001;983;1868;-71
2022/06/14 00:29:13;;;;;;;;;;;;;;;13.76;65.33;97464.94;30001;983;1876;-55
2022/06/14 00:29:44;;;;;;;;;;;;;;;13.75;65.14;97464.13;30001;983;1877;-70
2022/06/14 00:30:15;;;;;;;;;;;;;;;13.75;65.29;97463.31;30001;983;1877;-72
2022/06/14 00:30:47;;;;;;;;;;;;;;;13.76;65.03;97459.50;30001;983;1877;-70
2022/06/14 00:31:20;;;;;;;;;;;;;;;13.75;65.22;97457.88;30001;983;1877;-73
2022/06/14 00:31:51;;;;;;;;;;;;;;;13.75;65.08;97452.41;30001;983;1877;-73
2022/06/14 00:32:24;;;;;;;;;;;;;;;13.75;65.23;97457.88;30001;983;1877;-55
2022/06/14 00:32:55;;;;;;;;;;;;;;;13.74;65.25;97451.59;30001;982;1877;-72
2022/06/14 00:33:26;;;;;;;;;;;;;;;13.75;64.98;97449.69;30001;982;1864;-72
2022/06/14 00:33:57;;;;;;;;;;;;;;;13.75;65.29;97452.41;30001;982;1868;-71
2022/06/14 00:34:28;;;;;;;;;;;;;;;13.75;65.06;97460.59;30001;982;1864;-72
2022/06/14 00:35:00;;;;;;;;;;;;;;;13.74;65.01;97456.25;30001;982;1869;-55
2022/06/14 00:35:32;;;;;;;;;;;;;;;13.73;65.50;97454.63;30001;983;1876;-71
2022/06/14 00:36:05;;;;;;;;;;;;;;;13.71;65.23;97457.66;30001;983;1863;-71
2022/06/14 00:36:36;;;;;;;;;;;;;;;13.70;65.51;97450.59;30001;983;1759;-55
2022/06/14 00:37:11;;;;;;;;;;;;;;;13.71;65.46;97452.22;30001;983;1877;-57
2022/06/14 00:37:42;;;;;;;;;;;;;;;13.71;65.62;97451.41;30001;983;1863;-55
2022/06/14 00:38:13;;;;;;;;;;;;;;;13.71;65.34;97451.41;30001;983;1868;-55
2022/06/14 00:38:46;;;;;;;;;;;;;;;13.70;65.24;97450.59;30001;983;1864;-55
2022/06/14 00:39:17;;;;;;;;;;;;;;;13.70;65.12;97449.78;30001;983;1868;-70
2022/06/14 00:39:48;;;;;;;;;;;;;;;13.69;65.46;97448.97;30001;982;1877;-73
2022/06/14 00:40:21;;;;;;;;;;;;;;;13.70;65.35;97456.03;30001;985;1877;-55
2022/06/14 00:40:57;;;;;;;;;;;;;;;13.70;65.63;97449.78;30001;982;1877;-70
2022/06/14 00:41:48;;;;;;;;;;;;;;;13.70;65.68;97455.22;30001;982;1754;-71
2022/06/14 00:42:20;;;;;;;;;;;;;;;13.68;65.64;97447.34;30001;982;1851;-70
2022/06/14 00:42:52;;;;;;;;;;;;;;;13.69;65.83;97459.06;30001;983;1876;-70
2022/06/14 00:43:24;;;;;;;;;;;;;;;13.66;65.71;97455.00;30001;983;1876;-73
2022/06/14 00:43:55;;;;;;;;;;;;;;;13.66;65.73;97448.75;30001;983;1876;-55
2022/06/14 00:44:28;;;;;;;;;;;;;;;13.64;65.82;97459.97;30001;983;1863;-71
2022/06/14 00:45:03;;;;;;;;;;;;;;;13.65;65.80;97452.59;30001;983;1868;-72
2022/06/14 00:45:54;;;;;;;;;;;;;;;13.64;65.87;97450.97;30001;983;1877;-55
2022/06/14 00:46:37;;;;;;;;;;;;;;;13.63;65.83;97455.59;30001;983;1872;-56
2022/06/14 00:47:13;;;;;;;;;;;;;;;13.62;65.93;97448.53;30001;982;1877;-73
2022/06/14 00:48:00;;;;;;;;;;;;;;;13.61;65.91;97452.38;30001;982;1877;-70
2022/06/14 00:48:32;;;;;;;;;;;;;;;13.61;66.79;97459.75;30001;982;1877;-73
2022/06/14 00:49:06;;;;;;;;;;;;;;;13.57;67.27;97456.78;30001;982;1864;-71
2022/06/14 00:50:05;;;;;;;;;;;;;;;13.53;67.33;97461.22;30001;964;1887;-73
2022/06/14 00:51:05;;;;;;;;;;;;;;;13.51;66.47;97454.47;30001;983;1872;-55
2022/06/14 00:51:39;;;;;;;;;;;;;;;13.52;66.33;97458.78;30001;960;1799;-70
2022/06/14 00:52:17;;;;;;;;;;;;;;;13.52;66.20;97453.34;30001;983;1877;-71
2022/06/14 00:52:51;;;;;;;;;;;;;;;13.52;66.18;97453.34;30001;960;1887;-71
2022/06/14 00:53:26;;;;;;;;;;;;;;;13.52;66.01;97453.34;30001;983;1868;-72
2022/06/14 00:54:01;;;;;;;;;;;;;;;13.51;66.40;97454.47;30001;986;1864;-71
2022/06/14 00:54:37;;;;;;;;;;;;;;;13.50;66.42;97452.84;30001;982;1868;-56
2022/06/14 00:55:25;;;;;;;;;;;;;;;13.49;66.43;97453.97;30001;982;1864;-71
2022/06/14 00:55:58;;;;;;;;;;;;;;;13.48;66.06;97452.34;30001;982;1868;-70
2022/06/14 00:56:41;;;;;;;;;;;;;;;13.48;66.16;97452.34;30001;982;1877;-70
2022/06/14 00:57:18;;;;;;;;;;;;;;;13.47;66.19;97453.44;30001;982;1877;-71
2022/06/14 00:57:52;;;;;;;;;;;;;;;13.47;66.65;97453.44;30001;982;1864;-71
2022/06/14 00:58:27;;;;;;;;;;;;;;;13.46;66.16;97460.00;30001;983;1868;-70
2022/06/14 00:59:01;;;;;;;;;;;;;;;13.46;66.41;97454.56;30001;983;1877;-70
2022/06/14 00:59:34;;;;;;;;;;;;;;;13.46;66.18;97454.56;30001;983;1876;-70
2022/06/14 01:00:08;;;;;;;;;;;;;;;13.44;67.51;97456.78;30001;983;1877;-55
2022/06/14 01:00:48;;;;;;;;;;;;;;;13.40;67.19;97451.09;30001;983;1790;-55
2022/06/14 01:01:21;;;;;;;;;;;;;;;13.38;66.88;97453.31;30001;985;1877;-71
2022/06/14 01:01:56;;;;;;;;;;;;;;;13.37;66.79;97444.31;30001;983;1877;-70
2022/06/14 01:02:29;;;;;;;;;;;;;;;13.38;66.63;97451.41;30001;982;1877;-73
2022/06/14 01:03:05;;;;;;;;;;;;;;;13.38;66.97;97443.22;30001;982;1864;-71
2022/06/14 01:03:39;;;;;;;;;;;;;;;13.39;66.73;97450.28;30001;982;1868;-55
2022/06/14 01:04:16;;;;;;;;;;;;;;;13.39;66.68;97453.00;30001;982;1877;-72
2022/06/14 01:04:48;;;;;;;;;;;;;;;13.40;66.74;97457.38;30001;975;1880;-70
2022/06/14 01:05:25;;;;;;;;;;;;;;;13.39;66.49;97450.28;30001;982;1855;-56
2022/06/14 01:06:07;;;;;;;;;;;;;;;13.38;66.71;97443.22;30001;983;1876;-70
2022/06/14 01:06:50;;;;;;;;;;;;;;;13.38;66.50;97443.22;30001;983;1877;-55
2022/06/14 01:07:27;;;;;;;;;;;;;;;13.38;66.71;97443.22;30001;983;1876;-55
2022/06/14 01:07:58;;;;;;;;;;;;;;;13.38;66.72;97447.84;30001;983;1877;-71
2022/06/14 01:08:29;;;;;;;;;;;;;;;13.37;66.79;97447.06;30001;983;1877;-55
2022/06/14 01:09:04;;;;;;;;;;;;;;;13.37;66.96;97446.25;30001;983;1877;-55
2022/06/14 01:09:38;;;;;;;;;;;;;;;13.35;66.62;97449.25;30001;983;1877;-72
2022/06/14 01:10:16;;;;;;;;;;;;;;;13.35;66.60;97449.25;30001;982;1864;-56
2022/06/14 01:10:48;;;;;;;;;;;;;;;13.36;66.70;97439.97;30001;982;1868;-71
2022/06/14 01:11:22;;;;;;;;;;;;;;;13.37;66.52;97438.06;30001;982;1877;-55
2022/06/14 01:11:55;;;;;;;;;;;;;;;13.37;66.68;97440.78;30001;982;1877;-71
2022/06/14 01:12:29;;;;;;;;;;;;;;;13.36;66.52;97434.53;30001;983;1876;-70
2022/06/14 01:13:02;;;;;;;;;;;;;;;13.37;66.85;97436.16;30001;986;1864;-70
2022/06/14 01:13:34;;;;;;;;;;;;;;;13.37;66.61;97441.59;30001;983;1859;-56
2022/06/14 01:14:06;;;;;;;;;;;;;;;13.37;66.79;97435.34;30001;983;1881;-56
2022/06/14 01:14:57;;;;;;;;;;;;;;;13.38;66.43;97440.50;30001;983;1881;-70
2022/06/14 01:15:29;;;;;;;;;;;;;;;13.39;66.62;97439.37;30001;983;1864;-70
2022/06/14 01:16:00;;;;;;;;;;;;;;;13.39;66.58;97438.56;30001;983;1872;-74
2022/06/14 01:16:32;;;;;;;;;;;;;;;13.39;66.57;97438.56;30001;983;1881;-55
2022/06/14 01:17:04;;;;;;;;;;;;;;;13.39;66.34;97439.37;30001;983;1881;-55
2022/06/14 01:17:43;;;;;;;;;;;;;;;13.40;66.72;97435.56;30001;982;1881;-71
2022/06/14 01:18:14;;;;;;;;;;;;;;;13.41;66.08;97436.38;30001;982;1882;-55
2022/06/14 01:18:45;;;;;;;;;;;;;;;13.41;66.02;97441.81;30001;982;1882;-55
2022/06/14 01:19:24;;;;;;;;;;;;;;;13.40;66.12;97435.56;30001;982;1881;-55
2022/06/14 01:19:55;;;;;;;;;;;;;;;13.39;66.18;97439.37;30001;983;1881;-55
2022/06/14 01:20:26;;;;;;;;;;;;;;;13.40;65.94;97430.09;30001;983;1880;-55
2022/06/14 01:20:57;;;;;;;;;;;;;;;13.42;66.49;97437.97;30001;983;1867;-70
2022/06/14 01:21:28;;;;;;;;;;;;;;;13.41;66.16;97436.38;30001;983;1872;-71
2022/06/14 01:22:19;;;;;;;;;;;;;;;13.41;66.25;97437.19;30001;983;1881;-71
2022/06/14 01:22:51;;;;;;;;;;;;;;;13.42;65.92;97437.97;30001;983;1876;-71
2022/06/14 01:23:22;;;;;;;;;;;;;;;13.44;65.86;97440.41;30001;983;1881;-71
2022/06/14 01:23:53;;;;;;;;;;;;;;;13.43;65.80;97431.44;30001;983;1881;-56
2022/06/14 01:24:24;;;;;;;;;;;;;;;13.44;65.85;97437.69;30001;983;1881;-72
2022/06/14 01:24:55;;;;;;;;;;;;;;;13.43;65.43;97430.63;30001;982;1881;-70
2022/06/14 01:25:30;;;;;;;;;;;;;;;13.43;65.72;97425.16;30001;982;1881;-56
2022/06/14 01:26:11;;;;;;;;;;;;;;;13.43;65.58;97436.06;30001;982;1868;-71
2022/06/14 01:26:42;;;;;;;;;;;;;;;13.41;66.10;97439.09;30001;982;1873;-55
2022/06/14 01:27:15;;;;;;;;;;;;;;;13.40;65.82;97435.56;30001;982;1882;-55
2022/06/14 01:27:47;;;;;;;;;;;;;;;13.39;65.84;97436.66;30001;983;1881;-72
2022/06/14 01:28:20;;;;;;;;;;;;;;;13.39;66.15;97438.56;30001;983;1881;-72
2022/06/14 01:28:57;;;;;;;;;;;;;;;13.39;66.25;97436.66;30001;983;1881;-71
2022/06/14 01:29:29;;;;;;;;;;;;;;;13.39;66.44;97433.13;30001;983;1868;-71
2022/06/14 01:30:03;;;;;;;;;;;;;;;13.38;66.15;97437.78;30001;983;1872;-71
2022/06/14 01:30:36;;;;;;;;;;;;;;;13.39;66.15;97439.37;30001;983;1881;-71
2022/06/14 01:31:08;;;;;;;;;;;;;;;13.38;66.29;97432.31;30001;983;1881;-71
2022/06/14 01:31:39;;;;;;;;;;;;;;;13.38;65.93;97431.50;30001;983;1881;-70
2022/06/14 01:32:12;;;;;;;;;;;;;;;13.38;66.36;97439.69;30001;983;1881;-55
2022/06/14 01:32:47;;;;;;;;;;;;;;;13.38;66.15;97435.03;30001;982;1881;-55
2022/06/14 01:33:31;;;;;;;;;;;;;;;13.38;66.25;97435.03;30001;982;1868;-55
2022/06/14 01:34:07;;;;;;;;;;;;;;;13.38;66.38;97434.22;30001;982;1873;-70
2022/06/14 01:34:40;;;;;;;;;;;;;;;13.38;66.18;97440.50;30001;982;1882;-70
2022/06/14 01:35:14;;;;;;;;;;;;;;;13.37;66.03;97436.16;30001;983;1881;-72
2022/06/14 01:35:49;;;;;;;;;;;;;;;13.37;66.44;97430.69;30001;983;1881;-56
2022/06/14 01:36:28;;;;;;;;;;;;;;;13.37;66.21;97425.25;30001;983;1881;-55
2022/06/14 01:36:59;;;;;;;;;;;;;;;13.38;66.07;97435.03;30001;983;1881;-55
2022/06/14 01:37:30;;;;;;;;;;;;;;;13.37;66.34;97427.97;30001;983;1881;-70
2022/06/14 01:38:04;;;;;;;;;;;;;;;13.38;66.60;97434.22;30001;983;1868;-70
2022/06/14 01:38:36;;;;;;;;;;;;;;;13.37;66.13;97433.41;30001;983;1872;-71
2022/06/14 01:39:09;;;;;;;;;;;;;;;13.38;66.05;97435.03;30001;983;1881;-70
2022/06/14 01:39:41;;;;;;;;;;;;;;;13.39;66.00;97438.56;30001;983;1881;-72
2022/06/14 01:40:13;;;;;;;;;;;;;;;13.37;66.20;97430.69;30001;982;1882;-55
2022/06/14 01:40:59;;;;;;;;;;;;;;;13.37;66.38;97427.97;30001;982;1881;-72
2022/06/14 01:41:52;;;;;;;;;;;;;;;13.36;66.29;97428.25;30001;982;1881;-70
2022/06/14 01:42:36;;;;;;;;;;;;;;;13.35;66.42;97432.91;30001;983;1863;-55
2022/06/14 01:43:21;;;;;;;;;;;;;;;13.35;66.28;97432.09;30001;983;1872;-71
2022/06/14 01:44:24;;;;;;;;;;;;;;;13.34;66.64;97436.75;30001;983;1881;-71
2022/06/14 01:45:05;;;;;;;;;;;;;;;13.34;66.49;97431.28;30001;983;1876;-71
2022/06/14 01:46:02;;;;;;;;;;;;;;;13.33;66.72;97435.13;30001;983;1881;-70
2022/06/14 01:46:42;;;;;;;;;;;;;;;13.33;66.66;97435.13;30001;982;1863;-55
2022/06/14 01:47:44;;;;;;;;;;;;;;;13.32;66.53;97436.22;30001;982;1873;-71
2022/06/14 01:48:35;;;;;;;;;;;;;;;13.32;66.75;97433.50;30001;982;1877;-71
2022/06/14 01:52:30;;;;;;;;;;;;;;;13.27;66.59;97428.12;30001;983;1868;-71
2022/06/14 01:53:17;;;;;;;;;;;;;;;13.28;66.35;97428.94;30001;983;1877;-71
2022/06/14 01:54:00;;;;;;;;;;;;;;;13.27;66.31;97433.56;30001;983;1877;-71
2022/06/14 01:54:55;;;;;;;;;;;;;;;13.25;66.51;97432.25;30001;982;1877;-70
2022/06/14 01:55:34;;;;;;;;;;;;;;;13.25;66.39;97433.06;30001;982;1877;-71
2022/06/14 01:56:31;;;;;;;;;;;;;;;13.24;66.69;97442.34;30001;982;1864;-73
2022/06/14 01:57:25;;;;;;;;;;;;;;;13.23;66.42;97435.28;30001;982;1864;-71
2022/06/14 01:58:01;;;;;;;;;;;;;;;13.23;66.33;97440.72;30001;983;1863;-71
2022/06/14 01:58:38;;;;;;;;;;;;;;;13.22;66.45;97439.09;30001;983;1868;-72
2022/06/14 01:59:18;;;;;;;;;;;;;;;13.23;66.34;97439.91;30001;972;1886;-71
2022/06/14 01:59:56;;;;;;;;;;;;;;;13.23;66.22;97440.72;30001;983;1868;-55
2022/06/14 02:00:34;;;;;;;;;;;;;;;13.24;66.43;97441.53;30001;983;1877;-71
2022/06/14 02:01:30;;;;;;;;;;;;;;;13.25;66.01;97438.50;30001;983;1877;-55
2022/06/14 02:02:06;;;;;;;;;;;;;;;13.26;65.62;97433.88;30001;982;1873;-55
2022/06/14 02:02:41;;;;;;;;;;;;;;;13.27;65.79;97441.75;30001;982;1877;-55
2022/06/14 02:04:37;;;;;;;;;;;;;;;13.25;66.16;97438.50;30001;982;1869;-71
2022/06/14 02:05:23;;;;;;;;;;;;;;;13.25;65.86;97441.22;30001;983;1876;-55
2022/06/14 02:06:03;;;;;;;;;;;;;;;13.26;65.98;97444.78;30001;983;1876;-71
2022/06/14 02:06:39;;;;;;;;;;;;;;;13.24;65.95;97436.88;30001;983;1877;-70
2022/06/14 02:07:32;;;;;;;;;;;;;;;13.23;66.19;97443.44;30001;983;1876;-70
2022/06/14 02:08:08;;;;;;;;;;;;;;;13.22;66.16;97433.66;30001;983;1877;-55
2022/06/14 02:08:51;;;;;;;;;;;;;;;13.23;66.48;97434.47;30001;983;1864;-70
2022/06/14 02:09:41;;;;;;;;;;;;;;;13.23;66.32;97435.28;30001;982;1855;-69
2022/06/14 02:10:16;;;;;;;;;;;;;;;13.21;66.58;97442.94;30001;982;1877;-71
2022/06/14 02:11:13;;;;;;;;;;;;;;;13.20;66.38;97438.59;30001;982;1877;-69
2022/06/14 02:11:45;;;;;;;;;;;;;;;13.20;66.46;97441.31;30001;982;1873;-70
2022/06/14 02:12:20;;;;;;;;;;;;;;;13.19;66.13;97436.97;30001;982;1877;-70
2022/06/14 02:13:08;;;;;;;;;;;;;;;13.19;66.39;97439.69;30001;983;1876;-54
2022/06/14 02:13:44;;;;;;;;;;;;;;;13.19;66.18;97439.69;30001;983;1868;-70
2022/06/14 02:14:27;;;;;;;;;;;;;;;13.19;66.20;97436.97;30001;983;1864;-55
2022/06/14 02:15:14;;;;;;;;;;;;;;;13.20;66.19;97432.31;30001;983;1868;-54
2022/06/14 02:16:07;;;;;;;;;;;;;;;13.20;65.86;97429.59;30001;983;1877;-69
2022/06/14 02:17:00;;;;;;;;;;;;;;;13.20;65.99;97435.88;30001;983;1877;-69
2022/06/14 02:17:36;;;;;;;;;;;;;;;13.20;66.07;97432.31;30001;982;1873;-54
2022/06/14 02:18:28;;;;;;;;;;;;;;;13.19;66.24;97436.97;30001;982;1864;-71
2022/06/14 02:19:12;;;;;;;;;;;;;;;13.19;66.28;97434.25;30001;982;1869;-54
2022/06/14 02:19:48;;;;;;;;;;;;;;;13.19;65.92;97428.78;30001;983;1863;-70
2022/06/14 02:20:23;;;;;;;;;;;;;;;13.19;65.76;97428.78;30002;752;1015;-72
2022/06/14 02:21:24;;;;;;;;;;;;;;;13.17;65.69;97431.00;30001;983;1863;-69
2022/06/14 02:21:58;;;;;;;;;;;;;;;13.17;65.97;97430.22;30001;983;1864;-70
2022/06/14 02:22:32;;;;;;;;;;;;;;;13.15;65.88;97419.59;30001;983;1877;-70
2022/06/14 02:23:08;;;;;;;;;;;;;;;13.16;65.70;97421.25;30001;966;1894;-69
2022/06/14 02:23:42;;;;;;;;;;;;;;;13.16;65.79;97423.97;30001;983;1864;-55
2022/06/14 02:24:45;;;;;;;;;;;;;;;13.14;65.57;97420.69;30001;983;1868;-70
2022/06/14 02:25:21;;;;;;;;;;;;;;;13.15;65.80;97425.03;30001;982;1873;-70
2022/06/14 02:25:57;;;;;;;;;;;;;;;13.16;65.70;97428.59;30001;982;1877;-70
2022/06/14 02:26:36;;;;;;;;;;;;;;;13.15;65.85;97416.87;30001;982;1877;-70
2022/06/14 02:27:27;;;;;;;;;;;;;;;13.14;66.30;97420.69;30001;983;1876;-71
2022/06/14 02:28:01;;;;;;;;;;;;;;;13.13;66.21;97421.78;30001;983;1863;-74
2022/06/14 02:28:38;;;;;;;;;;;;;;;13.11;66.09;97415.84;30001;983;1868;-70
2022/06/14 02:29:21;;;;;;;;;;;;;;;13.11;66.22;97423.19;30001;983;1876;-71
2022/06/14 02:30:14;;;;;;;;;;;;;;;13.09;66.40;97426.22;30001;983;1863;-70
2022/06/14 02:30:59;;;;;;;;;;;;;;;13.07;66.44;97426.50;30001;983;1868;-69
2022/06/14 02:31:34;;;;;;;;;;;;;;;13.07;66.37;97422.97;30001;983;1877;-69
2022/06/14 02:32:11;;;;;;;;;;;;;;;13.04;66.39;97421.66;30001;982;1877;-55
2022/06/14 02:32:44;;;;;;;;;;;;;;;13.02;67.22;97426.59;30001;982;1877;-55
2022/06/14 02:33:20;;;;;;;;;;;;;;;13.01;66.76;97421.44;30001;982;1877;-70
2022/06/14 02:34:00;;;;;;;;;;;;;;;12.98;66.66;97424.75;30001;982;1864;-69
2022/06/14 02:34:34;;;;;;;;;;;;;;;12.98;66.81;97422.00;30001;983;1863;-69
2022/06/14 02:35:14;;;;;;;;;;;;;;;12.97;67.32;97421.22;30001;983;1876;-70
2022/06/14 02:35:52;;;;;;;;;;;;;;;12.99;67.13;97418.19;30001;983;1863;-70
2022/06/14 02:36:30;;;;;;;;;;;;;;;12.98;66.80;97420.09;30001;983;1868;-70
2022/06/14 02:37:10;;;;;;;;;;;;;;;12.99;66.56;97420.91;30001;983;1877;-72
2022/06/14 02:38:06;;;;;;;;;;;;;;;12.98;67.03;97422.81;30001;983;1877;-70
2022/06/14 02:38:40;;;;;;;;;;;;;;;12.98;66.73;97422.00;30001;983;1873;-70
2022/06/14 02:39:16;;;;;;;;;;;;;;;12.98;66.78;97422.00;30001;983;1877;-53
2022/06/14 02:39:58;;;;;;;;;;;;;;;12.98;66.40;97422.81;30001;982;1877;-71
2022/06/14 02:40:55;;;;;;;;;;;;;;;12.98;66.40;97422.81;30001;982;1877;-70
2022/06/14 02:41:29;;;;;;;;;;;;;;;12.99;66.76;97418.19;30001;982;1859;-72
2022/06/14 02:42:12;;;;;;;;;;;;;;;12.97;66.69;97418.47;30001;983;1868;-54
2022/06/14 02:42:49;;;;;;;;;;;;;;;12.96;66.68;97418.78;30001;983;1876;-54
2022/06/14 02:43:22;;;;;;;;;;;;;;;12.97;66.98;97426.66;30001;983;1877;-70
2022/06/14 02:44:05;;;;;;;;;;;;;;;12.97;67.02;97420.41;30001;983;1877;-70
2022/06/14 02:44:39;;;;;;;;;;;;;;;12.96;66.91;97416.84;30001;983;1877;-54
2022/06/14 02:45:16;;;;;;;;;;;;;;;12.97;66.76;97415.75;30001;983;1864;-71
2022/06/14 02:45:50;;;;;;;;;;;;;;;12.97;66.73;97417.66;30001;983;1868;-54
2022/06/14 02:46:31;;;;;;;;;;;;;;;12.96;66.90;97419.59;30001;983;1877;-70
2022/06/14 02:47:18;;;;;;;;;;;;;;;12.96;67.50;97418.78;30001;982;1877;-53
2022/06/14 02:48:01;;;;;;;;;;;;;;;12.92;67.22;97417.75;30001;982;1877;-56
2022/06/14 02:48:53;;;;;;;;;;;;;;;12.92;67.36;97423.19;30001;982;1877;-70
2022/06/14 02:49:28;;;;;;;;;;;;;;;12.91;67.66;97418.84;30001;982;1864;-54
2022/06/14 02:50:03;;;;;;;;;;;;;;;12.88;67.96;97413.97;30001;983;1868;-53
2022/06/14 02:50:41;;;;;;;;;;;;;;;12.87;67.83;97424.06;30001;983;1876;-70
2022/06/14 02:51:16;;;;;;;;;;;;;;;12.85;68.01;97422.75;30001;983;1863;-70
2022/06/14 02:51:53;;;;;;;;;;;;;;;12.86;68.01;97424.37;30001;983;1868;-54
2022/06/14 02:52:44;;;;;;;;;;;;;;;12.85;68.01;97422.75;30001;983;1876;-70
2022/06/14 02:53:18;;;;;;;;;;;;;;;12.85;67.75;97417.28;30001;983;1872;-70
2022/06/14 02:53:58;;;;;;;;;;;;;;;12.85;67.74;97417.28;30001;982;1877;-70
2022/06/14 02:54:34;;;;;;;;;;;;;;;12.84;67.78;97421.12;30001;982;1864;-54
2022/06/14 02:55:12;;;;;;;;;;;;;;;12.83;67.98;97425.75;30001;982;1868;-54
2022/06/14 02:55:46;;;;;;;;;;;;;;;12.84;68.13;97432.00;30001;982;1877;-55
2022/06/14 02:56:27;;;;;;;;;;;;;;;12.83;68.43;97419.50;30001;982;1877;-69
2022/06/14 02:57:16;;;;;;;;;;;;;;;12.78;69.14;97420.41;30001;982;1864;-70
2022/06/14 02:57:56;;;;;;;;;;;;;;;12.72;68.99;97421.56;30001;983;1868;-70
2022/06/14 02:58:34;;;;;;;;;;;;;;;12.67;69.72;97417.00;30001;983;1877;-72
2022/06/14 02:59:08;;;;;;;;;;;;;;;12.64;70.11;97422.22;30001;983;1877;-54
2022/06/14 02:59:48;;;;;;;;;;;;;;;12.63;69.54;97420.59;30001;983;1877;-70
2022/06/14 03:00:22;;;;;;;;;;;;;;;12.64;69.23;97422.22;30001;983;1877;-55
2022/06/14 03:00:59;;;;;;;;;;;;;;;12.63;69.41;97415.97;30001;983;1864;-70
2022/06/14 03:01:33;;;;;;;;;;;;;;;12.65;69.29;97418.41;30001;982;1855;-71
2022/06/14 03:02:07;;;;;;;;;;;;;;;12.66;69.18;97420.03;30001;982;1877;-70
2022/06/14 03:02:42;;;;;;;;;;;;;;;12.68;68.88;97424.06;30001;982;1877;-72
2022/06/14 03:03:17;;;;;;;;;;;;;;;12.68;68.75;97421.34;30001;982;1877;-69
2022/06/14 03:03:52;;;;;;;;;;;;;;;12.69;68.79;97417.53;30001;982;1877;-70
2022/06/14 03:04:31;;;;;;;;;;;;;;;12.70;68.63;97421.06;30001;964;1895;-70
2022/06/14 03:05:08;;;;;;;;;;;;;;;12.70;68.59;97419.16;30001;983;1876;-70
2022/06/14 03:05:43;;;;;;;;;;;;;;;12.68;69.18;97417.81;30001;983;1876;-70
2022/06/14 03:06:20;;;;;;;;;;;;;;;12.65;69.90;97418.41;30001;983;1864;-69
2022/06/14 03:07:05;;;;;;;;;;;;;;;12.61;69.62;97418.19;30001;983;1868;-70
2022/06/14 03:07:44;;;;;;;;;;;;;;;12.58;70.42;97418.75;30001;983;1877;-70
2022/06/14 03:08:18;;;;;;;;;;;;;;;12.52;70.88;97414.47;30001;983;1877;-70
2022/06/14 03:08:54;;;;;;;;;;;;;;;12.50;70.39;97416.69;30001;982;1877;-54
2022/06/14 03:09:31;;;;;;;;;;;;;;;12.48;70.54;97413.44;30001;982;1877;-69
2022/06/14 03:10:02;;;;;;;;;;;;;;;12.47;70.17;97420.00;30001;982;1877;-71
2022/06/14 03:10:39;;;;;;;;;;;;;;;12.48;70.17;97418.06;30001;986;1877;-72
2022/06/14 03:11:47;;;;;;;;;;;;;;;12.47;70.05;97419.22;30001;982;1864;-53
2022/06/14 03:12:41;;;;;;;;;;;;;;;12.47;70.05;97419.22;30001;983;1863;-69
2022/06/14 03:13:26;;;;;;;;;;;;;;;12.47;69.93;97417.28;30001;983;1872;-70
2022/06/14 03:14:02;;;;;;;;;;;;;;;12.50;70.07;97421.31;30001;983;1877;-69
2022/06/14 03:14:58;;;;;;;;;;;;;;;12.51;70.13;97412.84;30001;983;1863;-70
2022/06/14 03:15:51;;;;;;;;;;;;;;;12.51;69.87;97412.84;30001;983;1863;-70
2022/06/14 03:16:35;;;;;;;;;;;;;;;12.47;70.14;97414.56;30001;982;1877;-70
2022/06/14 03:17:25;;;;;;;;;;;;;;;12.45;69.84;97413.25;30001;982;1864;-70
2022/06/14 03:18:09;;;;;;;;;;;;;;;12.42;70.02;97414.63;30001;982;1864;-54
2022/06/14 03:18:49;;;;;;;;;;;;;;;12.40;70.31;97414.94;30001;982;1864;-70
2022/06/14 03:19:28;;;;;;;;;;;;;;;12.37;70.80;97412.78;30001;982;1868;-70
2022/06/14 03:20:12;;;;;;;;;;;;;;;12.34;71.01;97416.09;30001;983;1876;-53
2022/06/14 03:20:57;;;;;;;;;;;;;;;12.33;70.37;97413.66;30001;983;1877;-69
2022/06/14 03:21:34;;;;;;;;;;;;;;;12.34;70.67;97418.81;30001;983;1877;-70
2022/06/14 03:22:17;;;;;;;;;;;;;;;12.35;70.90;97419.63;30001;983;1864;-69
2022/06/14 03:22:53;;;;;;;;;;;;;;;12.34;71.27;97418.00;30001;983;1868;-54
2022/06/14 03:23:49;;;;;;;;;;;;;;;12.33;70.77;97424.53;30001;983;1877;-70
2022/06/14 03:24:32;;;;;;;;;;;;;;;12.34;70.88;97412.56;30001;982;1877;-55
2022/06/14 03:25:14;;;;;;;;;;;;;;;12.33;70.94;97424.53;30001;982;1877;-70